M/y Big Sky — ZGAH4 — position and weather

sailwx.info

Track history (hours):
 
Tides and Currents Weather Stations Pressure Air Temp Water Temp Dewpoint Dewpoint Depression Visibility Wind Speed Wind Dir Waves Ship Positions

M/y Big Sky

Last reported at 2018-Apr-14 17:12 UTC. Time now 2018-Jun-18 11:11 UTC.
Position N 26°07' W 079°41'.
Warning: this ship's position is months out of date.

Length 48 m; draft 2.6 m.

Type: Pleasure craft. MMSI: 319016800.

Date/timePositionNaut miles runAvg speedWind from/ knotsBaromVisibWave heightAir tempDewpointWater temp
2018-Apr-14 17:12N 26°07' W 079°41'313.1
2018-Apr-14 17:00N 26°07' W 079°43'713.0
2018-Apr-14 16:30N 26°07' W 079°51'612.5
2018-Apr-14 16:00N 26°06' W 079°58'612.3
2018-Apr-14 15:30N 26°06' W 080°04'3 5.1
2018-Apr-14 15:00N 26°06' W 080°07'2 3.6
2018-Apr-14 14:30N 26°07' W 080°09'0 0.0
2018-Apr-14 14:00N 26°07' W 080°09'1 2.2
2018-Apr-14 13:30N 26°06' W 080°10'1 2.2
2018-Apr-14 12:58N 26°05' W 080°10'0 0.0
2018-Apr-14 12:30N 26°05' W 080°10'  
2018-Apr-09 20:08N 26°07' W 080°07'1 4.7
2018-Apr-09 20:00N 26°06' W 080°07'2 4.0
2018-Apr-09 19:30N 26°05' W 080°05'3 6.7
2018-Apr-09 19:00N 26°07' W 080°02'713.3
2018-Apr-09 18:30N 26°07' W 079°54'5 9.6
2018-Apr-09 18:00N 26°07' W 079°49'3 6.6
2018-Apr-09 17:28N 26°07' W 079°45'3 6.4
2018-Apr-09 17:00N 26°07' W 079°42'3 5.8
2018-Apr-09 16:30N 26°08' W 079°39'3 5.3
2018-Apr-09 16:00N 26°08' W 079°36'3 5.6
2018-Apr-09 15:30N 26°08' W 079°33'  
Track history (hours):
 
Tides and Currents Weather Stations Pressure Air Temp Water Temp Dewpoint Dewpoint Depression Visibility Wind Speed Wind Dir Waves Ship Positions

M/y Big Sky

Last reported at 2018-Apr-14 17:12 UTC. Time now 2018-Jun-18 11:11 UTC.
Position N 26°07' W 079°41'.
Warning: this ship's position is months out of date.

Length 48 m; draft 2.6 m.

Type: Pleasure craft. MMSI: 319016800.

Date/timePositionNaut miles runAvg speedWind from/ knotsBaromVisibWave heightAir tempDewpointWater temp
2018-Apr-14 17:12N 26°07' W 079°41'313.1
2018-Apr-14 17:00N 26°07' W 079°43'713.0
2018-Apr-14 16:30N 26°07' W 079°51'612.5
2018-Apr-14 16:00N 26°06' W 079°58'612.3
2018-Apr-14 15:30N 26°06' W 080°04'3 5.1
2018-Apr-14 15:00N 26°06' W 080°07'2 3.6
2018-Apr-14 14:30N 26°07' W 080°09'0 0.0
2018-Apr-14 14:00N 26°07' W 080°09'1 2.2
2018-Apr-14 13:30N 26°06' W 080°10'1 2.2
2018-Apr-14 12:58N 26°05' W 080°10'0 0.0
2018-Apr-14 12:30N 26°05' W 080°10'  
2018-Apr-09 20:08N 26°07' W 080°07'1 4.7
2018-Apr-09 20:00N 26°06' W 080°07'2 4.0
2018-Apr-09 19:30N 26°05' W 080°05'3 6.7
2018-Apr-09 19:00N 26°07' W 080°02'713.3
2018-Apr-09 18:30N 26°07' W 079°54'5 9.6
2018-Apr-09 18:00N 26°07' W 079°49'3 6.6
2018-Apr-09 17:28N 26°07' W 079°45'3 6.4
2018-Apr-09 17:00N 26°07' W 079°42'3 5.8
2018-Apr-09 16:30N 26°08' W 079°39'3 5.3
2018-Apr-09 16:00N 26°08' W 079°36'3 5.6
2018-Apr-09 15:30N 26°08' W 079°33'  

Dump ship's entire track history